DAL583 TXKF-KATL
Flight info
| Callsign | DAL583 |
|---|---|
| Flight time | N/A |
| Altitude | 39000 |
| Route | JIMAC M326 JAINS Y436 DEDDY HOTHH JJEDI4 |
| Aircraft | A319/M-VGDW/C |
Departure
| Time | 2026-04-21 11:45 |
|---|---|
| Airport | L.F. Wade International Airport (TXKF) |
Arrival
| Time | N/A |
|---|---|
| Airport | Hartsfield Jackson Atlanta International Airport (KATL) |
| Time | Latitude | Longitude | Altitude | Speed | Heading |
|---|---|---|---|---|---|
| 2026-04-21 11:03 | 32.36106 | -64.70068 | 26 ft | 0 kts | 146° |
| 2026-04-21 11:36 | 32.36111 | -64.70071 | 27 ft | 2 kts | 146° |
| 2026-04-21 11:36 | 32.36128 | -64.70084 | 27 ft | 3 kts | 145° |
| 2026-04-21 11:37 | 32.36144 | -64.70099 | 27 ft | 3 kts | 139° |
| 2026-04-21 11:37 | 32.36158 | -64.70115 | 27 ft | 3 kts | 111° |
| 2026-04-21 11:37 | 32.36159 | -64.70131 | 27 ft | 2 kts | 60° |
| 2026-04-21 11:39 | 32.36162 | -64.70124 | 26 ft | 2 kts | 60° |
| 2026-04-21 11:39 | 32.36201 | -64.70076 | 26 ft | 23 kts | 32° |
| 2026-04-21 11:39 | 32.36334 | -64.69955 | 26 ft | 21 kts | 58° |
| 2026-04-21 11:40 | 32.36397 | -64.69788 | 26 ft | 23 kts | 67° |
| 2026-04-21 11:40 | 32.36463 | -64.69602 | 26 ft | 26 kts | 66° |
| 2026-04-21 11:40 | 32.36536 | -64.69399 | 26 ft | 28 kts | 66° |
| 2026-04-21 11:40 | 32.36615 | -64.69177 | 26 ft | 30 kts | 66° |
| 2026-04-21 11:41 | 32.36696 | -64.68946 | 26 ft | 25 kts | 68° |
| 2026-04-21 11:41 | 32.36695 | -64.68742 | 26 ft | 26 kts | 101° |
| 2026-04-21 11:41 | 32.36656 | -64.68526 | 26 ft | 27 kts | 104° |
| 2026-04-21 11:41 | 32.36615 | -64.68318 | 26 ft | 27 kts | 100° |
| 2026-04-21 11:42 | 32.36579 | -64.68108 | 26 ft | 24 kts | 102° |
| 2026-04-21 11:42 | 32.36545 | -64.67911 | 26 ft | 26 kts | 101° |
| 2026-04-21 11:42 | 32.36509 | -64.67706 | 26 ft | 24 kts | 101° |
| 2026-04-21 11:42 | 32.36475 | -64.67505 | 26 ft | 26 kts | 101° |
| 2026-04-21 11:43 | 32.36440 | -64.67302 | 26 ft | 25 kts | 101° |
| 2026-04-21 11:43 | 32.36404 | -64.67096 | 26 ft | 25 kts | 101° |
| 2026-04-21 11:43 | 32.36372 | -64.66905 | 26 ft | 22 kts | 101° |
| 2026-04-21 11:43 | 32.36341 | -64.66717 | 26 ft | 25 kts | 102° |
| 2026-04-21 11:44 | 32.36306 | -64.66519 | 26 ft | 23 kts | 101° |
| 2026-04-21 11:44 | 32.36249 | -64.66361 | 26 ft | 19 kts | 140° |
| 2026-04-21 11:44 | 32.36149 | -64.66356 | 26 ft | 7 kts | 233° |
| 2026-04-21 11:44 | 32.36148 | -64.66381 | 26 ft | 0 kts | 283° |
| 2026-04-21 11:45 | 32.36156 | -64.66428 | 26 ft | 30 kts | 282° |
| 2026-04-21 11:45 | 32.36258 | -64.67036 | 26 ft | 117 kts | 284° |
| 2026-04-21 11:45 | 32.36439 | -64.68197 | 286 ft | 155 kts | 291° |
| 2026-04-21 11:45 | 32.36681 | -64.69476 | 992 ft | 163 kts | 292° |
| 2026-04-21 11:46 | 32.36932 | -64.70799 | 1828 ft | 169 kts | 289° |
| 2026-04-21 11:46 | 32.37187 | -64.72222 | 2344 ft | 184 kts | 286° |
| 2026-04-21 11:46 | 32.37440 | -64.73761 | 2781 ft | 198 kts | 285° |
| 2026-04-21 11:46 | 32.37718 | -64.75440 | 3211 ft | 217 kts | 285° |
| 2026-04-21 11:47 | 32.38024 | -64.77249 | 3763 ft | 232 kts | 284° |
| 2026-04-21 11:47 | 32.38350 | -64.79186 | 4330 ft | 248 kts | 283° |
| 2026-04-21 11:47 | 32.38648 | -64.81248 | 5063 ft | 257 kts | 277° |
| 2026-04-21 11:47 | 32.38720 | -64.83378 | 5981 ft | 261 kts | 272° |
| 2026-04-21 11:48 | 32.38713 | -64.84813 | 6513 ft | 265 kts | 271° |
| 2026-04-21 11:48 | 32.38683 | -64.87783 | 7566 ft | 275 kts | 271° |
| 2026-04-21 11:48 | 32.38682 | -64.89290 | 8103 ft | 278 kts | 271° |
| 2026-04-21 11:48 | 32.38692 | -64.91564 | 9071 ft | 276 kts | 271° |
| 2026-04-21 11:49 | 32.38712 | -64.94580 | 10224 ft | 277 kts | 270° |
| 2026-04-21 11:49 | 32.38720 | -64.96130 | 10726 ft | 282 kts | 269° |
| 2026-04-21 11:49 | 32.38727 | -64.98500 | 11232 ft | 296 kts | 269° |
| 2026-04-21 11:49 | 32.38733 | -65.00996 | 11648 ft | 311 kts | 269° |
| 2026-04-21 11:50 | 32.38738 | -65.03599 | 12254 ft | 319 kts | 269° |
| 2026-04-21 11:50 | 32.38748 | -65.06229 | 13043 ft | 320 kts | 268° |
| 2026-04-21 11:50 | 32.38759 | -65.08870 | 13793 ft | 322 kts | 268° |
| 2026-04-21 11:50 | 32.38768 | -65.11530 | 14520 ft | 325 kts | 268° |
| 2026-04-21 11:51 | 32.38775 | -65.14203 | 15222 ft | 327 kts | 268° |
| 2026-04-21 11:51 | 32.38781 | -65.16904 | 15918 ft | 329 kts | 267° |
| 2026-04-21 11:51 | 32.38786 | -65.19615 | 16586 ft | 331 kts | 267° |
| 2026-04-21 11:51 | 32.38790 | -65.22340 | 17240 ft | 333 kts | 267° |
| 2026-04-21 11:52 | 32.38794 | -65.25092 | 17880 ft | 335 kts | 267° |
| 2026-04-21 11:52 | 32.38799 | -65.27862 | 18495 ft | 337 kts | 266° |
| 2026-04-21 11:52 | 32.38805 | -65.30639 | 19091 ft | 339 kts | 266° |
| 2026-04-21 11:52 | 32.38808 | -65.33443 | 19671 ft | 341 kts | 266° |
| 2026-04-21 11:53 | 32.38810 | -65.36258 | 20233 ft | 343 kts | 266° |
| 2026-04-21 11:53 | 32.38810 | -65.39049 | 20780 ft | 345 kts | 266° |
| 2026-04-21 11:53 | 32.38811 | -65.41900 | 21312 ft | 347 kts | 265° |
| 2026-04-21 11:53 | 32.38811 | -65.44763 | 21824 ft | 349 kts | 265° |
| 2026-04-21 11:54 | 32.38811 | -65.47646 | 22326 ft | 351 kts | 265° |
| 2026-04-21 11:54 | 32.38810 | -65.50542 | 22814 ft | 353 kts | 265° |
| 2026-04-21 11:54 | 32.38806 | -65.53459 | 23285 ft | 355 kts | 265° |
| 2026-04-21 11:54 | 32.38803 | -65.56391 | 23742 ft | 357 kts | 265° |
| 2026-04-21 11:55 | 32.38801 | -65.59340 | 24184 ft | 359 kts | 265° |
| 2026-04-21 11:55 | 32.38798 | -65.62303 | 24631 ft | 361 kts | 264° |
| 2026-04-21 11:55 | 32.38792 | -65.65272 | 25065 ft | 362 kts | 264° |
| 2026-04-21 11:55 | 32.38787 | -65.68262 | 25491 ft | 364 kts | 264° |
| 2026-04-21 11:56 | 32.38780 | -65.71264 | 25916 ft | 365 kts | 264° |
| 2026-04-21 11:56 | 32.38775 | -65.74274 | 26340 ft | 367 kts | 264° |
| 2026-04-21 11:56 | 32.38769 | -65.77288 | 26754 ft | 368 kts | 264° |
| 2026-04-21 11:56 | 32.38761 | -65.80324 | 27156 ft | 369 kts | 264° |
| 2026-04-21 11:57 | 32.38751 | -65.83368 | 27561 ft | 370 kts | 263° |
| 2026-04-21 11:57 | 32.38741 | -65.86421 | 27976 ft | 371 kts | 263° |
| 2026-04-21 11:57 | 32.38731 | -65.89479 | 28373 ft | 372 kts | 263° |
| 2026-04-21 11:57 | 32.38719 | -65.92547 | 28752 ft | 374 kts | 263° |
| 2026-04-21 11:58 | 32.38705 | -65.95630 | 29135 ft | 375 kts | 263° |
| 2026-04-21 11:58 | 32.38693 | -65.98720 | 29507 ft | 377 kts | 263° |
| 2026-04-21 11:58 | 32.38681 | -66.01826 | 29874 ft | 378 kts | 263° |
| 2026-04-21 11:58 | 32.38668 | -66.04929 | 30267 ft | 378 kts | 263° |
| 2026-04-21 11:59 | 32.38653 | -66.08051 | 30642 ft | 379 kts | 263° |
| 2026-04-21 11:59 | 32.38635 | -66.11167 | 30996 ft | 380 kts | 263° |
| 2026-04-21 11:59 | 32.38617 | -66.14295 | 31471 ft | 378 kts | 263° |
| 2026-04-21 11:59 | 32.38603 | -66.17382 | 31999 ft | 375 kts | 264° |
| 2026-04-21 12:00 | 32.38590 | -66.20448 | 32489 ft | 372 kts | 264° |
| 2026-04-21 12:00 | 32.38572 | -66.23493 | 32975 ft | 369 kts | 264° |
| 2026-04-21 12:00 | 32.38551 | -66.26527 | 33408 ft | 367 kts | 264° |
| 2026-04-21 12:00 | 32.38530 | -66.29529 | 33862 ft | 365 kts | 264° |
| 2026-04-21 12:01 | 32.38508 | -66.32475 | 34288 ft | 363 kts | 264° |
| 2026-04-21 12:01 | 32.38486 | -66.35475 | 34576 ft | 364 kts | 264° |
| 2026-04-21 12:01 | 32.38462 | -66.38470 | 34875 ft | 365 kts | 264° |
| 2026-04-21 12:01 | 32.38439 | -66.41487 | 35162 ft | 366 kts | 265° |
| 2026-04-21 12:02 | 32.38417 | -66.44500 | 35457 ft | 367 kts | 265° |
| 2026-04-21 12:02 | 32.38367 | -66.50549 | 35986 ft | 369 kts | 265° |
| 2026-04-21 12:02 | 32.38339 | -66.53594 | 36224 ft | 370 kts | 265° |
| 2026-04-21 12:03 | 32.38311 | -66.56634 | 36466 ft | 371 kts | 265° |
| 2026-04-21 12:03 | 32.38285 | -66.59691 | 36693 ft | 372 kts | 266° |
| 2026-04-21 12:03 | 32.38260 | -66.62752 | 36891 ft | 373 kts | 266° |
| 2026-04-21 12:03 | 32.38229 | -66.65816 | 37132 ft | 373 kts | 266° |
| 2026-04-21 12:04 | 32.38197 | -66.68885 | 37352 ft | 373 kts | 266° |
| 2026-04-21 12:04 | 32.38165 | -66.71961 | 37545 ft | 374 kts | 266° |
| 2026-04-21 12:04 | 32.38137 | -66.75039 | 37740 ft | 374 kts | 266° |
| 2026-04-21 12:04 | 32.38106 | -66.78119 | 37930 ft | 375 kts | 266° |
| 2026-04-21 12:05 | 32.38072 | -66.81194 | 38104 ft | 375 kts | 266° |
| 2026-04-21 12:05 | 32.38037 | -66.84280 | 38286 ft | 375 kts | 266° |
| 2026-04-21 12:05 | 32.38003 | -66.87360 | 38437 ft | 375 kts | 267° |
| 2026-04-21 12:05 | 32.37969 | -66.90456 | 38615 ft | 375 kts | 267° |
| 2026-04-21 12:06 | 32.37934 | -66.93544 | 38775 ft | 375 kts | 267° |
| 2026-04-21 12:06 | 32.37898 | -66.96631 | 38911 ft | 376 kts | 267° |
| 2026-04-21 12:06 | 32.37857 | -66.99721 | 39058 ft | 375 kts | 267° |
| 2026-04-21 12:07 | 32.37777 | -67.05877 | 39061 ft | 375 kts | 267° |
| 2026-04-21 12:07 | 32.37697 | -67.12039 | 39062 ft | 375 kts | 268° |
| 2026-04-21 12:08 | 32.37617 | -67.18157 | 39062 ft | 373 kts | 268° |
| 2026-04-21 12:08 | 32.37531 | -67.24308 | 39072 ft | 376 kts | 268° |
| 2026-04-21 12:09 | 32.37440 | -67.30522 | 39097 ft | 379 kts | 268° |
| 2026-04-21 12:09 | 32.37347 | -67.36785 | 39119 ft | 382 kts | 268° |
| 2026-04-21 12:10 | 32.37252 | -67.43065 | 39137 ft | 382 kts | 268° |
| 2026-04-21 12:10 | 32.37155 | -67.49329 | 39135 ft | 380 kts | 268° |
| 2026-04-21 12:11 | 32.37053 | -67.55571 | 39139 ft | 379 kts | 268° |
| 2026-04-21 12:11 | 32.36942 | -67.61786 | 39112 ft | 377 kts | 268° |
| 2026-04-21 12:12 | 32.36837 | -67.67982 | 39067 ft | 376 kts | 268° |
| 2026-04-21 12:12 | 32.36732 | -67.74167 | 39056 ft | 376 kts | 268° |
| 2026-04-21 12:13 | 32.36618 | -67.80354 | 39061 ft | 376 kts | 268° |
| 2026-04-21 12:13 | 32.36498 | -67.86552 | 39063 ft | 378 kts | 268° |
| 2026-04-21 12:14 | 32.36378 | -67.92765 | 39090 ft | 378 kts | 268° |
| 2026-04-21 12:14 | 32.36255 | -67.98979 | 39147 ft | 377 kts | 268° |
| 2026-04-21 12:15 | 32.36131 | -68.05181 | 39160 ft | 377 kts | 268° |
| 2026-04-21 12:15 | 32.35998 | -68.11382 | 39156 ft | 377 kts | 268° |
| 2026-04-21 12:16 | 32.35862 | -68.17534 | 39135 ft | 377 kts | 268° |
| 2026-04-21 12:16 | 32.35700 | -68.23729 | 39092 ft | 377 kts | 265° |
| 2026-04-21 12:17 | 32.35265 | -68.29910 | 39078 ft | 377 kts | 265° |
| 2026-04-21 12:17 | 32.34782 | -68.36091 | 39083 ft | 378 kts | 265° |
| 2026-04-21 12:18 | 32.34320 | -68.42281 | 39098 ft | 378 kts | 265° |
| 2026-04-21 12:18 | 32.33855 | -68.48476 | 39087 ft | 379 kts | 265° |
| 2026-04-21 12:19 | 32.33383 | -68.54682 | 39106 ft | 379 kts | 265° |
| 2026-04-21 12:19 | 32.32909 | -68.60885 | 39132 ft | 379 kts | 265° |
| 2026-04-21 12:20 | 32.32431 | -68.67095 | 39108 ft | 380 kts | 265° |
| 2026-04-21 12:20 | 32.31951 | -68.73312 | 39126 ft | 380 kts | 265° |
| 2026-04-21 12:21 | 32.31467 | -68.79527 | 39138 ft | 380 kts | 265° |
| 2026-04-21 12:21 | 32.30981 | -68.85707 | 39151 ft | 380 kts | 265° |
| 2026-04-21 12:22 | 32.30488 | -68.91926 | 39134 ft | 381 kts | 265° |
| 2026-04-21 12:22 | 32.29991 | -68.98155 | 39119 ft | 381 kts | 265° |
| 2026-04-21 12:23 | 32.29493 | -69.04390 | 39119 ft | 381 kts | 265° |
| 2026-04-21 12:23 | 32.28988 | -69.10618 | 39125 ft | 381 kts | 265° |
| 2026-04-21 12:24 | 32.28485 | -69.16843 | 39166 ft | 380 kts | 265° |
| 2026-04-21 12:24 | 32.27981 | -69.23056 | 39168 ft | 380 kts | 265° |
| 2026-04-21 12:25 | 32.27470 | -69.29270 | 39171 ft | 380 kts | 265° |
| 2026-04-21 12:25 | 32.26958 | -69.35480 | 39173 ft | 380 kts | 265° |
| 2026-04-21 12:26 | 32.26450 | -69.41681 | 39209 ft | 379 kts | 265° |
| 2026-04-21 12:26 | 32.25929 | -69.47876 | 39197 ft | 379 kts | 265° |
| 2026-04-21 12:27 | 32.25405 | -69.54068 | 39203 ft | 379 kts | 265° |
| 2026-04-21 12:27 | 32.24890 | -69.60252 | 39212 ft | 378 kts | 265° |
| 2026-04-21 12:28 | 32.24362 | -69.66386 | 39196 ft | 378 kts | 265° |
| 2026-04-21 12:28 | 32.23836 | -69.72559 | 39193 ft | 377 kts | 265° |
| 2026-04-21 12:29 | 32.23310 | -69.78714 | 39196 ft | 377 kts | 265° |
| 2026-04-21 12:29 | 32.22777 | -69.84884 | 39160 ft | 377 kts | 265° |
| 2026-04-21 12:30 | 32.22243 | -69.91044 | 39142 ft | 377 kts | 265° |
| 2026-04-21 12:30 | 32.21703 | -69.97195 | 39146 ft | 376 kts | 265° |
| 2026-04-21 12:31 | 32.21163 | -70.03340 | 39159 ft | 376 kts | 265° |
| 2026-04-21 12:31 | 32.20621 | -70.09485 | 39151 ft | 377 kts | 265° |
| 2026-04-21 12:32 | 32.20074 | -70.15642 | 39159 ft | 377 kts | 265° |
| 2026-04-21 12:32 | 32.19521 | -70.21798 | 39184 ft | 377 kts | 265° |
| 2026-04-21 12:33 | 32.18968 | -70.27958 | 39205 ft | 377 kts | 265° |
| 2026-04-21 12:33 | 32.18413 | -70.34113 | 39216 ft | 378 kts | 265° |
| 2026-04-21 12:34 | 32.17855 | -70.40241 | 39193 ft | 378 kts | 265° |
| 2026-04-21 12:34 | 32.17293 | -70.46413 | 39200 ft | 378 kts | 265° |
| 2026-04-21 12:35 | 32.16724 | -70.52595 | 39171 ft | 379 kts | 265° |
| 2026-04-21 12:35 | 32.16151 | -70.58790 | 39175 ft | 380 kts | 265° |
| 2026-04-21 12:36 | 32.15577 | -70.64995 | 39200 ft | 381 kts | 265° |
| 2026-04-21 12:36 | 32.14996 | -70.71210 | 39218 ft | 381 kts | 265° |
| 2026-04-21 12:37 | 32.14412 | -70.77442 | 39228 ft | 382 kts | 265° |
| 2026-04-21 12:37 | 32.13820 | -70.83677 | 39233 ft | 382 kts | 265° |
| 2026-04-21 12:38 | 32.13227 | -70.89930 | 39260 ft | 385 kts | 265° |
| 2026-04-21 12:38 | 32.12629 | -70.96206 | 39276 ft | 385 kts | 265° |
| 2026-04-21 12:39 | 32.12029 | -71.02484 | 39281 ft | 384 kts | 265° |
| 2026-04-21 12:39 | 32.11427 | -71.08740 | 39267 ft | 384 kts | 265° |
| 2026-04-21 12:40 | 32.10824 | -71.14952 | 39223 ft | 384 kts | 265° |
| 2026-04-21 12:40 | 32.10211 | -71.21200 | 39187 ft | 384 kts | 265° |
| 2026-04-21 12:41 | 32.09601 | -71.27451 | 39194 ft | 384 kts | 266° |
| 2026-04-21 12:41 | 32.08984 | -71.33716 | 39197 ft | 385 kts | 265° |
| 2026-04-21 12:42 | 32.08365 | -71.39996 | 39201 ft | 386 kts | 266° |
| 2026-04-21 12:42 | 32.07849 | -71.45230 | 39204 ft | 387 kts | 266° |
| 2026-04-21 12:43 | 32.07222 | -71.51531 | 39252 ft | 387 kts | 266° |
| 2026-04-21 12:43 | 32.06587 | -71.57833 | 39296 ft | 387 kts | 266° |
| 2026-04-21 12:44 | 32.05947 | -71.64133 | 39294 ft | 387 kts | 266° |
| 2026-04-21 12:44 | 32.05309 | -71.70411 | 39296 ft | 386 kts | 266° |
| 2026-04-21 12:45 | 32.04675 | -71.76688 | 39302 ft | 385 kts | 266° |
| 2026-04-21 12:45 | 32.04013 | -71.82962 | 39287 ft | 385 kts | 265° |
| 2026-04-21 12:46 | 32.03287 | -71.89214 | 39246 ft | 385 kts | 265° |
| 2026-04-21 12:46 | 32.02582 | -71.95480 | 39216 ft | 385 kts | 265° |
| 2026-04-21 12:47 | 32.01888 | -72.01731 | 39222 ft | 385 kts | 265° |
| 2026-04-21 12:47 | 32.01182 | -72.07997 | 39219 ft | 386 kts | 265° |
| 2026-04-21 12:48 | 32.00468 | -72.14256 | 39240 ft | 386 kts | 265° |
| 2026-04-21 12:48 | 31.99754 | -72.20518 | 39257 ft | 386 kts | 265° |
| 2026-04-21 12:49 | 31.99036 | -72.26781 | 39277 ft | 386 kts | 265° |
| 2026-04-21 12:49 | 31.98322 | -72.32988 | 39329 ft | 384 kts | 265° |
| 2026-04-21 12:50 | 31.97600 | -72.39268 | 39326 ft | 384 kts | 265° |
| 2026-04-21 12:50 | 31.96883 | -72.45457 | 39325 ft | 384 kts | 265° |
| 2026-04-21 12:51 | 31.96151 | -72.51707 | 39328 ft | 383 kts | 265° |
| 2026-04-21 12:51 | 31.95422 | -72.57919 | 39307 ft | 383 kts | 265° |
| 2026-04-21 12:52 | 31.94696 | -72.64124 | 39268 ft | 383 kts | 265° |
| 2026-04-21 12:52 | 31.93963 | -72.70349 | 39260 ft | 383 kts | 265° |
| 2026-04-21 12:53 | 31.93236 | -72.76500 | 39260 ft | 383 kts | 265° |
| 2026-04-21 12:53 | 31.92489 | -72.82716 | 39266 ft | 383 kts | 265° |
| 2026-04-21 12:54 | 31.91751 | -72.88928 | 39283 ft | 384 kts | 265° |
| 2026-04-21 12:54 | 31.91007 | -72.95141 | 39340 ft | 383 kts | 265° |
| 2026-04-21 12:55 | 31.90256 | -73.01348 | 39355 ft | 383 kts | 265° |
| 2026-04-21 12:55 | 31.89505 | -73.07546 | 39358 ft | 383 kts | 266° |
| 2026-04-21 12:56 | 31.88752 | -73.13748 | 39358 ft | 383 kts | 266° |
| 2026-04-21 12:56 | 31.87997 | -73.19938 | 39337 ft | 383 kts | 266° |
| 2026-04-21 12:57 | 31.87233 | -73.26153 | 39315 ft | 383 kts | 266° |
| 2026-04-21 12:57 | 31.86470 | -73.32365 | 39278 ft | 384 kts | 266° |
| 2026-04-21 12:58 | 31.85700 | -73.38591 | 39274 ft | 385 kts | 266° |
| 2026-04-21 12:58 | 31.84925 | -73.44825 | 39278 ft | 386 kts | 266° |
| 2026-04-21 12:59 | 31.84146 | -73.51074 | 39293 ft | 386 kts | 266° |
| 2026-04-21 12:59 | 31.83363 | -73.57321 | 39325 ft | 386 kts | 266° |
| 2026-04-21 13:00 | 31.82574 | -73.63580 | 39342 ft | 387 kts | 266° |
| 2026-04-21 13:00 | 31.81789 | -73.69836 | 39338 ft | 388 kts | 266° |
| 2026-04-21 13:01 | 31.81002 | -73.76087 | 39358 ft | 389 kts | 266° |
| 2026-04-21 13:01 | 31.80202 | -73.82367 | 39416 ft | 388 kts | 266° |
| 2026-04-21 13:02 | 31.79399 | -73.88646 | 39423 ft | 389 kts | 266° |
| 2026-04-21 13:02 | 31.78187 | -73.98085 | 39430 ft | 389 kts | 266° |
| 2026-04-21 13:03 | 31.77376 | -74.04375 | 39427 ft | 390 kts | 266° |
| 2026-04-21 13:03 | 31.76560 | -74.10670 | 39424 ft | 390 kts | 266° |
| 2026-04-21 13:04 | 31.75740 | -74.16957 | 39431 ft | 389 kts | 266° |
| 2026-04-21 13:04 | 31.74919 | -74.23229 | 39424 ft | 389 kts | 266° |
| 2026-04-21 13:05 | 31.74094 | -74.29513 | 39393 ft | 389 kts | 266° |
| 2026-04-21 13:05 | 31.73270 | -74.35785 | 39374 ft | 389 kts | 266° |
| 2026-04-21 13:06 | 31.72445 | -74.42046 | 39404 ft | 387 kts | 266° |
| 2026-04-21 13:06 | 31.71618 | -74.48279 | 39414 ft | 386 kts | 266° |
| 2026-04-21 13:07 | 31.70785 | -74.54521 | 39390 ft | 386 kts | 266° |
| 2026-04-21 13:07 | 31.69960 | -74.60709 | 39363 ft | 386 kts | 266° |
| 2026-04-21 13:08 | 31.69123 | -74.66935 | 39355 ft | 386 kts | 266° |
| 2026-04-21 13:08 | 31.68287 | -74.73146 | 39362 ft | 385 kts | 266° |
| 2026-04-21 13:09 | 31.67442 | -74.79404 | 39342 ft | 385 kts | 266° |
| 2026-04-21 13:09 | 31.66606 | -74.85556 | 39343 ft | 385 kts | 266° |
| 2026-04-21 13:10 | 31.65760 | -74.91771 | 39345 ft | 385 kts | 266° |
| 2026-04-21 13:10 | 31.64915 | -74.97949 | 39370 ft | 384 kts | 266° |
| 2026-04-21 13:11 | 31.64063 | -75.04156 | 39385 ft | 384 kts | 266° |
| 2026-04-21 13:11 | 31.63211 | -75.10340 | 39373 ft | 385 kts | 266° |
| 2026-04-21 13:12 | 31.62353 | -75.16532 | 39373 ft | 384 kts | 266° |
| 2026-04-21 13:12 | 31.61502 | -75.22679 | 39425 ft | 383 kts | 266° |
| 2026-04-21 13:13 | 31.60637 | -75.28887 | 39426 ft | 384 kts | 266° |
| 2026-04-21 13:13 | 31.59774 | -75.35057 | 39388 ft | 384 kts | 266° |
| 2026-04-21 13:14 | 31.58906 | -75.41252 | 39362 ft | 384 kts | 266° |
| 2026-04-21 13:14 | 31.58034 | -75.47430 | 39363 ft | 384 kts | 266° |
| 2026-04-21 13:15 | 31.57166 | -75.53578 | 39366 ft | 384 kts | 266° |
| 2026-04-21 13:15 | 31.56290 | -75.59763 | 39366 ft | 385 kts | 266° |
| 2026-04-21 13:16 | 31.55408 | -75.65955 | 39392 ft | 385 kts | 266° |
| 2026-04-21 13:16 | 31.54523 | -75.72143 | 39414 ft | 385 kts | 266° |
| 2026-04-21 13:17 | 31.53633 | -75.78360 | 39403 ft | 386 kts | 266° |
| 2026-04-21 13:17 | 31.52743 | -75.84543 | 39445 ft | 386 kts | 266° |
| 2026-04-21 13:18 | 31.51847 | -75.90753 | 39449 ft | 386 kts | 266° |
| 2026-04-21 13:18 | 31.50949 | -75.96952 | 39445 ft | 386 kts | 266° |
| 2026-04-21 13:19 | 31.50044 | -76.03176 | 39445 ft | 386 kts | 266° |
| 2026-04-21 13:19 | 31.49140 | -76.09373 | 39448 ft | 386 kts | 266° |
| 2026-04-21 13:20 | 31.48237 | -76.15542 | 39437 ft | 385 kts | 266° |
| 2026-04-21 13:20 | 31.47327 | -76.21728 | 39443 ft | 385 kts | 266° |
| 2026-04-21 13:21 | 31.46418 | -76.27898 | 39420 ft | 385 kts | 266° |
| 2026-04-21 13:21 | 31.45509 | -76.34043 | 39381 ft | 385 kts | 266° |
| 2026-04-21 13:22 | 31.44593 | -76.40210 | 39359 ft | 385 kts | 266° |
| 2026-04-21 13:22 | 31.43673 | -76.46386 | 39373 ft | 384 kts | 266° |
| 2026-04-21 13:23 | 31.42752 | -76.52551 | 39358 ft | 384 kts | 266° |
| 2026-04-21 13:23 | 31.41834 | -76.58676 | 39361 ft | 385 kts | 266° |
| 2026-04-21 13:24 | 31.40900 | -76.64876 | 39371 ft | 385 kts | 266° |
| 2026-04-21 13:24 | 31.39969 | -76.71039 | 39398 ft | 384 kts | 266° |
| 2026-04-21 13:25 | 31.39037 | -76.77191 | 39433 ft | 384 kts | 266° |
| 2026-04-21 13:25 | 31.38103 | -76.83341 | 39434 ft | 384 kts | 266° |
| 2026-04-21 13:26 | 31.37166 | -76.89485 | 39440 ft | 384 kts | 266° |
| 2026-04-21 13:26 | 31.36760 | -76.95632 | 39428 ft | 375 kts | 279° |
| 2026-04-21 13:27 | 31.38183 | -77.01411 | 39436 ft | 370 kts | 297° |
| 2026-04-21 13:27 | 31.41329 | -77.06177 | 39427 ft | 375 kts | 313° |
| 2026-04-21 13:28 | 31.45278 | -77.10190 | 39407 ft | 376 kts | 315° |
| 2026-04-21 13:28 | 31.49217 | -77.14228 | 39405 ft | 376 kts | 314° |
| 2026-04-21 13:29 | 31.53087 | -77.18326 | 39429 ft | 375 kts | 314° |
| 2026-04-21 13:29 | 31.56972 | -77.22409 | 39429 ft | 375 kts | 314° |
| 2026-04-21 13:30 | 31.60860 | -77.26482 | 39454 ft | 374 kts | 314° |
| 2026-04-21 13:30 | 31.64741 | -77.30565 | 39448 ft | 374 kts | 314° |
| 2026-04-21 13:31 | 31.68609 | -77.34639 | 39449 ft | 374 kts | 314° |
| 2026-04-21 13:31 | 31.72479 | -77.38716 | 39440 ft | 374 kts | 314° |
| 2026-04-21 13:32 | 31.76345 | -77.42794 | 39422 ft | 373 kts | 314° |
| 2026-04-21 13:32 | 31.79553 | -77.46184 | 39449 ft | 372 kts | 314° |
| 2026-04-21 13:33 | 31.83396 | -77.50250 | 39445 ft | 372 kts | 314° |
| 2026-04-21 13:33 | 31.87250 | -77.54327 | 39427 ft | 372 kts | 314° |
| 2026-04-21 13:34 | 31.91720 | -77.59063 | 39427 ft | 372 kts | 314° |
| 2026-04-21 13:34 | 31.94935 | -77.62475 | 39413 ft | 372 kts | 314° |
| 2026-04-21 13:35 | 31.98781 | -77.66559 | 39416 ft | 372 kts | 314° |
| 2026-04-21 13:35 | 32.02611 | -77.70638 | 39460 ft | 370 kts | 314° |
| 2026-04-21 13:36 | 32.06431 | -77.74706 | 39427 ft | 370 kts | 314° |
| 2026-04-21 13:36 | 32.10222 | -77.78749 | 39386 ft | 370 kts | 314° |
| 2026-04-21 13:37 | 32.14044 | -77.82829 | 39363 ft | 370 kts | 314° |
| 2026-04-21 13:37 | 32.17804 | -77.87035 | 39363 ft | 368 kts | 308° |
| 2026-04-21 13:38 | 32.20423 | -77.92106 | 39368 ft | 367 kts | 293° |
| 2026-04-21 13:38 | 32.22211 | -77.97758 | 39372 ft | 368 kts | 291° |
| 2026-04-21 13:39 | 32.24017 | -78.03417 | 39425 ft | 368 kts | 293° |
| 2026-04-21 13:39 | 32.25901 | -78.09036 | 39451 ft | 368 kts | 293° |
| 2026-04-21 13:40 | 32.27760 | -78.14665 | 39449 ft | 368 kts | 292° |
| 2026-04-21 13:40 | 32.29609 | -78.20311 | 39450 ft | 368 kts | 292° |
| 2026-04-21 13:41 | 32.31459 | -78.25952 | 39450 ft | 368 kts | 292° |
| 2026-04-21 13:41 | 32.33309 | -78.31600 | 39445 ft | 368 kts | 292° |
| 2026-04-21 13:42 | 32.35153 | -78.37248 | 39438 ft | 368 kts | 292° |
| 2026-04-21 13:42 | 32.36917 | -78.42644 | 39403 ft | 368 kts | 292° |
| 2026-04-21 13:43 | 32.38764 | -78.48301 | 39362 ft | 368 kts | 292° |
| 2026-04-21 13:43 | 32.40498 | -78.53618 | 39361 ft | 368 kts | 292° |
| 2026-04-21 13:44 | 32.42256 | -78.59022 | 39363 ft | 368 kts | 292° |
| 2026-04-21 13:44 | 32.44029 | -78.64486 | 39364 ft | 369 kts | 292° |
| 2026-04-21 13:45 | 32.45885 | -78.70216 | 39360 ft | 370 kts | 292° |
| 2026-04-21 13:45 | 32.47614 | -78.75560 | 39361 ft | 371 kts | 292° |
| 2026-04-21 13:46 | 32.49472 | -78.81335 | 39376 ft | 372 kts | 292° |
| 2026-04-21 13:46 | 32.51208 | -78.86705 | 39426 ft | 371 kts | 292° |
| 2026-04-21 13:47 | 32.53008 | -78.92293 | 39451 ft | 372 kts | 292° |
| 2026-04-21 13:47 | 32.54799 | -78.97877 | 39454 ft | 372 kts | 292° |
| 2026-04-21 13:48 | 32.56628 | -79.03577 | 39451 ft | 372 kts | 292° |
| 2026-04-21 13:48 | 32.58349 | -79.08962 | 39452 ft | 371 kts | 292° |
| 2026-04-21 13:49 | 32.60082 | -79.14386 | 39429 ft | 371 kts | 292° |
| 2026-04-21 13:49 | 32.61873 | -79.20003 | 39420 ft | 371 kts | 292° |
| 2026-04-21 13:50 | 32.63668 | -79.25631 | 39395 ft | 371 kts | 292° |
| 2026-04-21 13:50 | 32.65471 | -79.31316 | 39386 ft | 370 kts | 292° |
| 2026-04-21 13:51 | 32.67272 | -79.36994 | 39349 ft | 371 kts | 292° |
| 2026-04-21 13:51 | 32.68914 | -79.42188 | 39344 ft | 371 kts | 292° |
| 2026-04-21 13:52 | 32.70659 | -79.47708 | 39341 ft | 371 kts | 292° |
| 2026-04-21 13:52 | 32.72279 | -79.52838 | 39342 ft | 371 kts | 292° |
| 2026-04-21 13:53 | 32.74058 | -79.58421 | 39343 ft | 371 kts | 293° |
| 2026-04-21 13:53 | 32.75878 | -79.63806 | 39351 ft | 371 kts | 294° |
| 2026-04-21 13:54 | 32.77818 | -79.69436 | 39352 ft | 371 kts | 294° |
| 2026-04-21 13:54 | 32.79676 | -79.74898 | 39338 ft | 372 kts | 294° |
| 2026-04-21 13:55 | 32.81379 | -79.79932 | 39364 ft | 372 kts | 294° |
| 2026-04-21 13:55 | 32.83216 | -79.85386 | 39410 ft | 371 kts | 294° |
| 2026-04-21 13:56 | 32.85120 | -79.91019 | 39426 ft | 371 kts | 294° |
| 2026-04-21 13:56 | 32.87032 | -79.96687 | 39426 ft | 372 kts | 294° |
| 2026-04-21 13:57 | 32.88849 | -80.02093 | 39424 ft | 372 kts | 292° |
| 2026-04-21 13:57 | 32.89922 | -80.07872 | 39430 ft | 375 kts | 281° |
| 2026-04-21 13:58 | 32.90443 | -80.13981 | 39421 ft | 376 kts | 279° |
| 2026-04-21 13:58 | 32.90911 | -80.19686 | 39423 ft | 375 kts | 281° |
| 2026-04-21 13:59 | 32.91509 | -80.25783 | 39399 ft | 374 kts | 281° |
| 2026-04-21 13:59 | 32.92092 | -80.31674 | 39360 ft | 374 kts | 281° |
| 2026-04-21 14:00 | 32.92645 | -80.37609 | 39345 ft | 374 kts | 281° |
| 2026-04-21 14:00 | 32.93207 | -80.43631 | 39349 ft | 374 kts | 281° |
| 2026-04-21 14:01 | 32.93754 | -80.49501 | 39353 ft | 374 kts | 281° |
| 2026-04-21 14:01 | 32.94269 | -80.55080 | 39353 ft | 374 kts | 280° |
| 2026-04-21 14:02 | 32.94819 | -80.61018 | 39355 ft | 375 kts | 281° |
| 2026-04-21 14:03 | 32.95573 | -80.69183 | 39354 ft | 376 kts | 280° |
| 2026-04-21 14:03 | 32.96088 | -80.74867 | 39366 ft | 377 kts | 280° |
| 2026-04-21 14:04 | 32.96586 | -80.80462 | 39356 ft | 378 kts | 280° |
| 2026-04-21 14:04 | 32.97110 | -80.86313 | 39354 ft | 379 kts | 280° |
| 2026-04-21 14:05 | 32.97678 | -80.92525 | 39380 ft | 380 kts | 280° |
| 2026-04-21 14:05 | 32.98129 | -80.97575 | 39429 ft | 379 kts | 280° |
| 2026-04-21 14:06 | 32.98625 | -81.03250 | 39465 ft | 379 kts | 280° |
| 2026-04-21 14:06 | 32.99156 | -81.09265 | 39437 ft | 379 kts | 280° |
| 2026-04-21 14:07 | 32.99713 | -81.15487 | 39439 ft | 377 kts | 280° |
| 2026-04-21 14:07 | 33.00252 | -81.21684 | 39423 ft | 375 kts | 279° |
| 2026-04-21 14:08 | 33.00784 | -81.27830 | 39377 ft | 372 kts | 280° |
| 2026-04-21 14:08 | 33.01314 | -81.33941 | 39357 ft | 368 kts | 279° |
| 2026-04-21 14:09 | 33.01835 | -81.40009 | 39392 ft | 371 kts | 279° |
| 2026-04-21 14:09 | 33.02356 | -81.46118 | 39410 ft | 375 kts | 279° |
| 2026-04-21 14:10 | 33.02858 | -81.52012 | 39417 ft | 377 kts | 279° |
| 2026-04-21 14:10 | 33.03361 | -81.58087 | 39415 ft | 377 kts | 279° |
| 2026-04-21 14:11 | 33.03897 | -81.64330 | 39418 ft | 377 kts | 279° |
| 2026-04-21 14:11 | 33.04395 | -81.70256 | 39420 ft | 377 kts | 279° |
| 2026-04-21 14:12 | 33.04885 | -81.76268 | 39422 ft | 377 kts | 279° |
| 2026-04-21 14:12 | 33.05373 | -81.82262 | 39371 ft | 376 kts | 279° |
| 2026-04-21 14:12 | 33.05624 | -81.85379 | 39073 ft | 377 kts | 279° |
| 2026-04-21 14:13 | 33.05850 | -81.88188 | 38645 ft | 378 kts | 279° |
| 2026-04-21 14:13 | 33.06104 | -81.91274 | 38122 ft | 378 kts | 279° |
| 2026-04-21 14:13 | 33.06343 | -81.94378 | 37583 ft | 377 kts | 279° |
| 2026-04-21 14:13 | 33.06565 | -81.97441 | 37059 ft | 375 kts | 279° |
| 2026-04-21 14:14 | 33.06789 | -82.00568 | 36547 ft | 372 kts | 279° |
| 2026-04-21 14:14 | 33.07011 | -82.03586 | 36063 ft | 370 kts | 279° |
| 2026-04-21 14:14 | 33.07154 | -82.05555 | 35752 ft | 368 kts | 279° |
| 2026-04-21 14:14 | 33.07441 | -82.09514 | 35077 ft | 366 kts | 279° |
| 2026-04-21 14:15 | 33.07662 | -82.12527 | 34525 ft | 364 kts | 279° |
| 2026-04-21 14:15 | 33.07878 | -82.15410 | 34012 ft | 363 kts | 280° |
| 2026-04-21 14:15 | 33.08107 | -82.18462 | 33522 ft | 363 kts | 279° |
| 2026-04-21 14:15 | 33.08322 | -82.21325 | 33105 ft | 363 kts | 279° |
| 2026-04-21 14:16 | 33.08546 | -82.24398 | 32627 ft | 364 kts | 279° |
| 2026-04-21 14:16 | 33.08761 | -82.27401 | 32144 ft | 363 kts | 279° |
| 2026-04-21 14:16 | 33.08962 | -82.30208 | 31723 ft | 362 kts | 279° |
| 2026-04-21 14:16 | 33.09174 | -82.33130 | 31285 ft | 361 kts | 279° |
| 2026-04-21 14:17 | 33.09384 | -82.36011 | 30855 ft | 360 kts | 279° |
| 2026-04-21 14:17 | 33.09582 | -82.38841 | 30443 ft | 359 kts | 279° |
| 2026-04-21 14:17 | 33.09761 | -82.41396 | 30057 ft | 358 kts | 279° |
| 2026-04-21 14:17 | 33.09960 | -82.44223 | 29617 ft | 357 kts | 279° |
| 2026-04-21 14:18 | 33.10162 | -82.47055 | 29162 ft | 355 kts | 279° |
| 2026-04-21 14:18 | 33.10372 | -82.49967 | 28731 ft | 352 kts | 279° |
| 2026-04-21 14:18 | 33.10583 | -82.52884 | 28308 ft | 350 kts | 279° |
| 2026-04-21 14:18 | 33.10788 | -82.55786 | 27870 ft | 349 kts | 279° |
| 2026-04-21 14:19 | 33.10982 | -82.58548 | 27438 ft | 347 kts | 279° |
| 2026-04-21 14:19 | 33.11176 | -82.61411 | 26993 ft | 344 kts | 279° |
| 2026-04-21 14:19 | 33.11374 | -82.64240 | 26558 ft | 342 kts | 278° |
| 2026-04-21 14:19 | 33.11561 | -82.66933 | 26149 ft | 340 kts | 278° |
| 2026-04-21 14:20 | 33.11758 | -82.69754 | 25735 ft | 338 kts | 278° |
| 2026-04-21 14:20 | 33.11946 | -82.72416 | 25334 ft | 337 kts | 278° |
| 2026-04-21 14:20 | 33.12137 | -82.75153 | 24903 ft | 335 kts | 278° |
| 2026-04-21 14:20 | 33.12326 | -82.77942 | 24465 ft | 333 kts | 278° |
| 2026-04-21 14:21 | 33.12445 | -82.79716 | 24196 ft | 332 kts | 278° |
| 2026-04-21 14:21 | 33.12684 | -82.83149 | 23708 ft | 330 kts | 278° |
| 2026-04-21 14:21 | 33.12870 | -82.85819 | 23318 ft | 329 kts | 278° |
| 2026-04-21 14:21 | 33.12982 | -82.87478 | 23070 ft | 328 kts | 278° |
| 2026-04-21 14:22 | 33.13203 | -82.90804 | 22587 ft | 326 kts | 278° |
| 2026-04-21 14:22 | 33.13312 | -82.92428 | 22360 ft | 326 kts | 278° |